createdAt,value
2022-08-23T10:43:25.835Z,25.8
2022-08-23T10:44:26.826Z,25.9
2022-08-23T10:45:27.866Z,26
2022-08-23T10:46:28.822Z,26.1
2022-08-23T10:47:30.783Z,26.2
2022-08-23T10:48:31.804Z,26.4
2022-08-23T10:49:32.801Z,26.5
2022-08-23T10:50:33.858Z,26.5
2022-08-23T10:51:34.866Z,26.4
2022-08-23T10:52:35.836Z,26.4
2022-08-23T10:53:36.827Z,26.4
2022-08-23T10:54:37.968Z,26.4
2022-08-23T10:55:39.846Z,26.3
2022-08-23T10:56:48.513Z,26.2
2022-08-23T10:57:41.865Z,26.2
2022-08-23T10:58:42.853Z,26.2
2022-08-23T10:59:44.833Z,26.1
2022-08-23T11:00:45.839Z,26.1
2022-08-23T11:01:46.929Z,26.2
2022-08-23T11:02:47.922Z,26.4
2022-08-23T11:03:48.810Z,26.6
2022-08-23T11:04:50.827Z,26.7
2022-08-23T11:05:51.860Z,26.8
2022-08-23T11:06:52.853Z,27
2022-08-23T11:07:54.341Z,27.1
2022-08-23T11:08:55.822Z,27.2
2022-08-23T11:09:56.881Z,27.4
2022-08-23T11:10:57.829Z,27.5
2022-08-23T11:11:58.938Z,27.5
2022-08-23T11:13:00.853Z,27.4
2022-08-23T11:14:03.668Z,27.4
2022-08-23T11:15:02.870Z,27.4
2022-08-23T11:16:03.927Z,27.4
2022-08-23T11:17:04.927Z,27.3
2022-08-23T11:18:05.868Z,27.2
2022-08-23T11:19:06.849Z,27.2
2022-08-23T11:20:07.855Z,27.3
2022-08-23T11:21:08.855Z,27.4
2022-08-23T11:22:09.933Z,27.5
2022-08-23T11:23:10.855Z,27.6
2022-08-23T11:24:11.858Z,27.6
2022-08-23T11:25:12.846Z,27.6
2022-08-23T11:26:14.325Z,27.4
2022-08-23T11:27:16.233Z,27.2
2022-08-23T11:28:16.903Z,26.9
2022-08-23T11:29:17.860Z,26.7
2022-08-23T11:30:18.917Z,26.6
2022-08-23T11:31:20.671Z,26.6
2022-08-23T11:32:21.893Z,26.7
2022-08-23T11:33:22.969Z,26.8
2022-08-23T11:34:25.817Z,26.9
2022-08-23T11:35:24.865Z,26.9
2022-08-23T11:36:25.871Z,27.1
2022-08-23T11:37:26.873Z,27.2
2022-08-23T11:38:27.936Z,27.2
2022-08-23T11:39:28.925Z,27.3
2022-08-23T11:40:30.912Z,27.3
2022-08-23T11:41:31.891Z,27.3
2022-08-23T11:42:32.876Z,27.3
2022-08-23T11:43:34.433Z,27.3
2022-08-23T11:44:34.878Z,27.3
2022-08-23T11:45:35.895Z,27.2
2022-08-23T11:46:36.886Z,27.1
2022-08-23T11:47:38.927Z,27
2022-08-23T11:48:43.457Z,26.9
2022-08-23T11:49:41.963Z,26.8
2022-08-23T11:50:44.463Z,26.8
2022-08-23T11:51:48.090Z,26.8
2022-08-23T11:52:49.950Z,26.8
2022-08-23T11:53:51.448Z,26.8
2022-08-23T11:54:52.992Z,26.8
2022-08-23T11:55:54.150Z,26.8
2022-08-23T11:56:56.158Z,26.9
2022-08-23T11:57:57.937Z,27
2022-08-23T11:58:58.922Z,27.1
2022-08-23T12:00:00.225Z,27.1
2022-08-23T12:01:02.038Z,27.1
2022-08-23T12:02:03.963Z,27.2
2022-08-23T12:03:05.445Z,27.2
2022-08-23T12:04:07.160Z,27.3
2022-08-23T12:05:07.939Z,27.4
2022-08-23T12:06:08.981Z,27.4
2022-08-23T12:07:09.936Z,27.4
2022-08-23T12:08:10.988Z,27.4
2022-08-23T12:09:12.107Z,27.4
2022-08-23T12:10:13.931Z,27.4
2022-08-23T12:11:14.994Z,27.4
2022-08-23T12:12:16.107Z,27.3
2022-08-23T12:13:18.099Z,27.2
2022-08-23T12:14:20.256Z,27.2
2022-08-23T12:15:22.414Z,27.2
2022-08-23T12:16:24.130Z,27.2
2022-08-23T12:17:25.955Z,27.2
2022-08-23T12:18:27.270Z,27.2
2022-08-23T12:19:30.245Z,27.3
2022-08-23T12:20:31.945Z,27.2
2022-08-23T12:21:33.976Z,27.2
2022-08-23T12:22:35.009Z,27.2
2022-08-23T12:23:36.011Z,27.3
2022-08-23T12:24:37.962Z,27.4
2022-08-23T12:25:39.024Z,27.4
2022-08-23T12:26:39.956Z,27.2
2022-08-23T12:27:41.998Z,27
2022-08-23T12:28:43.141Z,27
2022-08-23T12:29:45.360Z,26.9
2022-08-23T12:30:47.030Z,26.8
2022-08-23T12:31:49.028Z,26.7
2022-08-23T12:32:51.327Z,26.7
2022-08-23T12:33:53.000Z,26.8
2022-08-23T12:34:53.965Z,26.9
2022-08-23T12:35:55.194Z,26.9
2022-08-23T12:36:58.384Z,27
2022-08-23T12:38:00.333Z,27
2022-08-23T12:39:02.024Z,27.1
2022-08-23T12:40:03.367Z,27.1
2022-08-23T12:41:05.014Z,27.1
2022-08-23T12:42:07.442Z,27.1
2022-08-23T12:43:09.065Z,27
2022-08-23T12:44:11.641Z,26.9
2022-08-23T12:45:13.039Z,26.9
2022-08-23T12:46:15.073Z,26.8
2022-08-23T12:47:18.915Z,26.7
2022-08-23T12:48:21.511Z,26.7
2022-08-23T12:49:28.069Z,26.7
2022-08-23T12:50:32.899Z,26.8
2022-08-23T12:51:34.539Z,26.8
2022-08-23T12:52:38.492Z,26.9
2022-08-23T12:53:44.701Z,26.9
2022-08-23T12:54:44.027Z,26.9
2022-08-23T12:55:45.524Z,26.9
2022-08-23T12:56:47.013Z,26.8
2022-08-23T12:57:48.436Z,26.7
2022-08-23T12:58:51.555Z,26.6
2022-08-23T12:59:58.618Z,26.6
2022-08-23T13:00:58.449Z,26.5
2022-08-23T13:02:01.127Z,26.3
2022-08-23T13:03:03.438Z,26.2
2022-08-23T13:04:05.316Z,26.2
2022-08-23T13:05:12.827Z,26.2
2022-08-23T13:06:11.030Z,26.2
2022-08-23T13:07:11.093Z,26.3
2022-08-23T13:08:12.055Z,26.4
2022-08-23T13:09:13.189Z,26.4
2022-08-23T13:10:15.073Z,26.5
2022-08-23T13:11:17.050Z,26.5
2022-08-23T13:12:18.400Z,26.4
2022-08-23T13:13:22.852Z,26.3
2022-08-23T13:14:24.574Z,26.3
2022-08-23T13:15:27.100Z,26.3
2022-08-23T13:16:29.190Z,26.4
2022-08-23T13:17:30.164Z,26.4
2022-08-23T13:18:33.696Z,26.3
2022-08-23T13:19:35.065Z,26.2
2022-08-23T13:20:36.065Z,26
2022-08-23T13:21:39.787Z,26
2022-08-23T13:22:39.113Z,26
2022-08-23T13:23:40.070Z,26
2022-08-23T13:24:41.302Z,25.9
2022-08-23T13:25:43.098Z,26
2022-08-23T13:26:44.071Z,26.1
2022-08-23T13:27:46.865Z,26
2022-08-23T13:28:50.459Z,25.9
2022-08-23T13:29:53.674Z,25.9
2022-08-23T13:30:56.183Z,25.8
2022-08-23T13:32:02.810Z,25.8
2022-08-23T13:32:59.875Z,25.7
2022-08-23T13:34:02.574Z,25.7
2022-08-23T13:35:05.309Z,25.6
2022-08-23T13:36:09.726Z,25.6
2022-08-23T13:37:09.072Z,25.5
2022-08-23T13:38:10.352Z,25.5
2022-08-23T13:39:12.075Z,25.6
2022-08-23T13:40:13.431Z,25.6
2022-08-23T13:41:15.347Z,25.7
2022-08-23T13:42:17.085Z,25.7
2022-08-23T13:43:19.085Z,25.8
2022-08-23T13:44:20.198Z,25.8
2022-08-23T13:45:22.617Z,25.8
2022-08-23T13:46:26.439Z,25.8
2022-08-23T13:47:28.098Z,25.8
2022-08-23T13:48:30.203Z,25.8
2022-08-23T13:49:31.870Z,25.8
2022-08-23T13:50:34.458Z,25.7
2022-08-23T13:51:36.874Z,25.7
2022-08-23T13:52:56.485Z,25.6
2022-08-23T13:53:37.106Z,25.6
2022-08-23T13:54:38.135Z,25.5
2022-08-23T13:55:39.263Z,25.5
2022-08-23T13:56:41.110Z,25.6
2022-08-23T13:57:42.105Z,25.6
2022-08-23T13:58:43.662Z,25.7
2022-08-23T13:59:47.083Z,25.8
2022-08-23T14:00:55.138Z,25.9
2022-08-23T14:01:50.127Z,25.9
2022-08-23T14:02:51.470Z,25.9
2022-08-23T14:03:53.160Z,25.9
2022-08-23T14:04:54.266Z,26
2022-08-23T14:05:55.123Z,25.9
2022-08-23T14:06:57.148Z,25.9
2022-08-23T14:07:58.132Z,25.9
2022-08-23T14:08:59.126Z,25.8
2022-08-23T14:10:00.163Z,25.9
2022-08-23T14:11:01.136Z,25.9
2022-08-23T14:12:03.013Z,26
2022-08-23T14:13:04.137Z,25.9
2022-08-23T14:14:05.714Z,25.9
2022-08-23T14:15:08.523Z,25.9
2022-08-23T14:16:40.881Z,25.8
2022-08-23T14:17:15.690Z,25.8
2022-08-23T14:18:15.146Z,25.8
2022-08-23T14:19:18.222Z,25.7
2022-08-23T14:20:43.747Z,25.8
2022-08-23T14:21:19.224Z,25.7
2022-08-23T14:22:21.228Z,25.7
2022-08-23T14:23:22.159Z,25.8
2022-08-23T14:24:23.158Z,25.8
2022-08-23T14:25:24.183Z,25.9
2022-08-23T14:26:26.192Z,25.8
2022-08-23T14:27:27.455Z,25.8
2022-08-23T14:28:29.718Z,25.7
2022-08-23T14:29:31.162Z,25.6
2022-08-23T14:30:32.244Z,25.6
2022-08-23T14:31:33.228Z,25.5
2022-08-23T14:32:35.163Z,25.5
2022-08-23T14:33:36.171Z,25.5
2022-08-23T14:34:38.723Z,25.5
2022-08-23T14:35:41.187Z,25.6
2022-08-23T14:37:21.478Z,25.6
2022-08-23T14:38:44.176Z,25.7
2022-08-23T14:39:45.234Z,25.8
2022-08-23T14:40:46.191Z,25.8
2022-08-23T14:41:51.680Z,25.9
2022-08-23T14:42:48.183Z,25.9
2022-08-23T14:43:49.183Z,26
2022-08-23T14:44:50.246Z,26
2022-08-23T14:45:51.191Z,26
2022-08-23T14:46:52.249Z,26
2022-08-23T14:47:53.200Z,26
2022-08-23T14:48:54.214Z,26
2022-08-23T14:49:55.207Z,25.9
2022-08-23T14:50:56.208Z,25.9
2022-08-23T14:51:57.235Z,25.7
2022-08-23T14:52:58.230Z,25.6
2022-08-23T14:53:59.345Z,25.6
2022-08-23T14:55:01.217Z,25.5
2022-08-23T14:56:20.158Z,25.5
2022-08-23T14:57:04.279Z,25.6
2022-08-23T14:58:05.226Z,25.7
2022-08-23T14:59:06.213Z,25.8
2022-08-23T15:00:07.249Z,25.8
2022-08-23T15:01:08.257Z,25.9
2022-08-23T15:02:09.320Z,25.8
2022-08-23T15:03:11.412Z,25.8
2022-08-23T15:04:12.273Z,25.8
2022-08-23T15:05:13.224Z,25.7
2022-08-23T15:06:14.242Z,25.7
2022-08-23T15:07:18.000Z,25.8
2022-08-23T15:08:16.259Z,25.9
2022-08-23T15:09:17.230Z,25.9
2022-08-23T15:13:29.940Z,25.8
2022-08-23T15:14:24.755Z,25.8
2022-08-23T15:15:26.247Z,25.8
2022-08-23T15:16:27.250Z,25.7
2022-08-23T15:17:31.415Z,25.8
2022-08-23T15:18:30.286Z,25.8
2022-08-23T15:19:31.273Z,25.8
2022-08-23T15:20:32.293Z,25.7
2022-08-23T15:21:33.249Z,25.7
2022-08-23T15:22:34.252Z,25.8
2022-08-23T15:23:35.281Z,25.7
2022-08-23T15:24:36.256Z,25.7
2022-08-23T15:25:37.261Z,25.6
2022-08-23T15:26:38.258Z,25.6
2022-08-23T15:27:39.257Z,25.5
2022-08-23T15:28:40.377Z,25.4
2022-08-23T15:29:42.259Z,25.4
2022-08-23T15:30:43.368Z,25.5
2022-08-23T15:31:44.274Z,25.5
2022-08-23T15:32:52.399Z,25.5
2022-08-23T15:33:46.273Z,25.5
2022-08-23T15:34:47.277Z,25.5
2022-08-23T15:35:48.311Z,25.5
2022-08-23T15:36:49.300Z,25.6
2022-08-23T15:37:50.297Z,25.6
2022-08-23T15:38:51.343Z,25.6
2022-08-23T15:39:52.310Z,25.6
2022-08-23T15:40:53.283Z,25.6
2022-08-23T15:41:54.294Z,25.6
2022-08-23T15:42:55.296Z,25.7
2022-08-23T15:43:56.346Z,25.7
2022-08-23T15:44:57.295Z,25.8
2022-08-23T15:45:58.322Z,25.8
2022-08-23T15:46:59.290Z,25.8
2022-08-23T15:48:00.289Z,25.9
2022-08-23T15:49:01.322Z,26
2022-08-23T15:50:02.347Z,26
2022-08-23T15:51:03.307Z,26
2022-08-23T15:52:04.301Z,25.9
2022-08-23T15:53:05.683Z,26
2022-08-23T15:54:06.347Z,26
2022-08-23T15:55:07.352Z,26.1
2022-08-23T15:56:08.334Z,26.1
2022-08-23T15:57:09.317Z,26.1
2022-08-23T15:58:10.315Z,26
2022-08-23T15:59:11.349Z,26
2022-08-23T16:00:12.336Z,26
2022-08-23T16:01:13.407Z,25.9
2022-08-23T16:02:14.399Z,25.9
2022-08-23T16:03:19.677Z,25.9
2022-08-23T16:04:16.366Z,25.9
2022-08-23T16:05:17.326Z,25.9
2022-08-23T16:06:18.325Z,25.9
2022-08-23T16:07:19.325Z,26
2022-08-23T16:08:20.332Z,26
2022-08-23T16:09:21.360Z,26
2022-08-23T16:10:22.336Z,26
2022-08-23T16:11:23.339Z,26
2022-08-23T16:12:24.330Z,26
2022-08-23T16:13:25.347Z,25.8
2022-08-23T16:14:26.373Z,25.8
2022-08-23T16:15:27.338Z,25.8
2022-08-23T16:16:28.383Z,25.7
2022-08-23T16:17:29.348Z,25.8
2022-08-23T16:18:30.352Z,25.7
2022-08-23T16:19:31.375Z,25.7
2022-08-23T16:20:32.389Z,25.7
2022-08-23T16:21:33.413Z,25.7
2022-08-23T16:22:34.351Z,25.8
2022-08-23T16:23:35.352Z,25.7
2022-08-23T16:24:36.360Z,25.6
2022-08-23T16:25:37.365Z,25.5
2022-08-23T16:26:38.381Z,25.5
2022-08-23T16:27:39.363Z,25.5
2022-08-23T16:28:40.356Z,25.4
2022-08-23T16:29:41.396Z,25.4
2022-08-23T16:30:42.454Z,25.4
2022-08-23T16:31:43.387Z,25.5
2022-08-23T16:32:44.383Z,25.5
2022-08-23T16:33:45.375Z,25.6
2022-08-23T16:34:46.419Z,25.6
2022-08-23T16:35:47.451Z,25.6
2022-08-23T16:36:48.416Z,25.6
2022-08-23T16:37:49.378Z,25.7
2022-08-23T16:38:50.382Z,25.7
2022-08-23T16:39:51.805Z,25.8
2022-08-23T16:40:53.428Z,25.8
2022-08-23T16:41:54.381Z,25.8
2022-08-23T16:42:55.427Z,25.8
2022-08-23T16:43:56.396Z,25.7
2022-08-23T16:44:57.461Z,25.6
2022-08-23T16:45:58.412Z,25.6
2022-08-23T16:46:59.400Z,25.6
2022-08-23T16:48:00.909Z,25.6
2022-08-23T16:49:02.480Z,25.6
2022-08-23T16:50:04.451Z,25.6
2022-08-23T16:51:05.453Z,25.5
2022-08-23T16:52:06.463Z,25.5
2022-08-23T16:53:07.667Z,25.5
2022-08-23T16:54:08.401Z,25.6
2022-08-23T16:55:10.481Z,25.6
2022-08-23T16:56:11.525Z,25.5
2022-08-23T16:57:13.484Z,25.6
2022-08-23T16:58:14.424Z,25.5
2022-08-23T16:59:15.447Z,25.6
2022-08-23T17:00:16.458Z,25.6
2022-08-23T17:01:17.449Z,25.6
2022-08-23T17:02:18.497Z,25.5
2022-08-23T17:03:19.448Z,25.4
2022-08-23T17:04:20.442Z,25.3
2022-08-23T17:05:21.448Z,25.3
2022-08-23T17:06:22.443Z,25.3
2022-08-23T17:07:23.488Z,25.4
2022-08-23T17:08:24.449Z,25.4
2022-08-23T17:09:25.421Z,25.4
2022-08-23T17:10:26.428Z,25.5
2022-08-23T17:11:29.746Z,25.4
2022-08-23T17:12:28.461Z,25.4
2022-08-23T17:13:29.430Z,25.4
2022-08-23T17:14:30.464Z,25.3
2022-08-23T17:15:31.445Z,25.4
2022-08-23T17:16:32.546Z,25.4
2022-08-23T17:17:33.504Z,25.4
2022-08-23T17:18:34.450Z,25.5
2022-08-23T17:19:35.473Z,25.4
2022-08-23T17:20:36.462Z,25.2
2022-08-23T17:21:37.535Z,25.2
2022-08-23T17:22:39.476Z,25.3
2022-08-23T17:23:42.496Z,25.3
2022-08-23T17:24:43.460Z,25.3
2022-08-23T17:25:44.905Z,25.4
2022-08-23T17:26:46.499Z,25.4
2022-08-23T17:27:47.526Z,25.4
2022-08-23T17:28:48.930Z,25.3
2022-08-23T17:29:51.638Z,25.3
2022-08-23T17:30:53.502Z,25.3
2022-08-23T17:31:54.796Z,25.3
2022-08-23T17:32:56.813Z,25.2
2022-08-23T17:33:58.494Z,25.2
2022-08-23T17:34:59.476Z,25.2
2022-08-23T17:36:01.770Z,25.2
2022-08-23T17:37:03.536Z,25.2
2022-08-23T17:38:05.757Z,25.3
2022-08-23T17:39:07.934Z,25.3
2022-08-23T17:40:09.712Z,25.3
2022-08-23T17:41:11.510Z,25.3
2022-08-23T17:42:12.751Z,25.3
2022-08-23T17:43:14.541Z,25.4
2022-08-23T17:44:16.485Z,25.4
2022-08-23T17:45:19.528Z,25.4
2022-08-23T17:46:20.584Z,25.5
2022-08-23T17:47:21.829Z,25.5
2022-08-23T17:51:49.529Z,25.5
2022-08-23T17:52:50.531Z,25.5
2022-08-23T17:53:51.498Z,25.4
2022-08-23T17:54:53.607Z,25.4
2022-08-23T17:55:55.587Z,25.4
2022-08-23T17:56:56.746Z,25.3
2022-08-23T17:58:02.348Z,25.3
2022-08-23T17:58:59.513Z,25.3
2022-08-23T18:00:00.526Z,25.3
2022-08-23T18:01:01.667Z,25.3
2022-08-23T18:02:03.567Z,25.3
2022-08-23T18:03:05.559Z,25.3
2022-08-23T18:04:06.582Z,25.2
2022-08-23T18:05:07.830Z,25.2
2022-08-23T18:06:11.264Z,25.1
2022-08-23T18:07:10.621Z,25.1
2022-08-23T18:08:11.527Z,25.1
2022-08-23T18:09:12.528Z,25.1
2022-08-23T18:10:13.563Z,25.2
2022-08-23T18:11:14.563Z,25.1
2022-08-23T18:12:15.563Z,25.2
2022-08-23T18:13:16.595Z,25.2
2022-08-23T18:14:17.592Z,25.2
2022-08-23T18:15:18.586Z,25.2
2022-08-23T18:16:19.588Z,25.2
2022-08-23T18:17:20.590Z,25.2
2022-08-23T18:18:21.607Z,25.2
2022-08-23T18:19:22.569Z,25.3
2022-08-23T18:20:23.601Z,25.2
2022-08-23T18:21:24.808Z,25.2
2022-08-23T18:22:26.582Z,25.2
2022-08-23T18:23:27.669Z,25.2
2022-08-23T18:24:29.595Z,25.1
2022-08-23T18:25:30.597Z,25.1
2022-08-23T18:26:33.515Z,25.1
2022-08-23T18:27:34.634Z,25.1
2022-08-23T18:28:36.428Z,25.1
2022-08-23T18:29:37.618Z,25.1
2022-08-23T18:30:38.675Z,25.1
2022-08-23T18:31:39.679Z,25.1
2022-08-23T18:32:41.607Z,25.1
2022-08-23T18:33:46.679Z,25.1
2022-08-23T18:34:43.594Z,25.1
2022-08-23T18:35:44.837Z,25.1
2022-08-23T18:36:46.607Z,25.1
2022-08-23T18:37:47.617Z,25.2
2022-08-23T18:38:48.620Z,25.2
2022-08-23T18:39:49.835Z,25.3
2022-08-23T18:40:51.584Z,25.4
2022-08-23T18:41:52.642Z,25.4
2022-08-23T18:42:53.615Z,25.4
2022-08-23T18:43:54.587Z,25.4
2022-08-23T18:44:55.608Z,25.3
2022-08-23T18:45:56.814Z,25.4
2022-08-23T18:46:58.615Z,25.3
2022-08-23T18:47:59.649Z,25.3
2022-08-23T18:49:00.607Z,25.3
2022-08-23T18:50:01.596Z,25.4
2022-08-23T18:51:02.690Z,25.3
2022-08-23T18:52:03.673Z,25.3
2022-08-23T18:53:04.694Z,25.2
2022-08-23T18:54:05.645Z,25.2
2022-08-23T18:55:06.970Z,25.2
2022-08-23T18:56:08.646Z,25.2
2022-08-23T18:57:15.644Z,25.2
2022-08-23T18:58:11.646Z,25.2
2022-08-23T18:59:12.667Z,25.1
2022-08-23T19:00:14.729Z,25.1
2022-08-23T19:01:16.804Z,25.1
2022-08-23T19:02:19.129Z,25.1
2022-08-23T19:03:20.648Z,25.1
2022-08-23T19:04:21.784Z,25.1
2022-08-23T19:05:23.674Z,25.1
2022-08-23T19:06:24.641Z,25.2
2022-08-23T19:07:25.661Z,25.2
2022-08-23T19:08:26.842Z,25.3
2022-08-23T19:09:28.634Z,25.2
2022-08-23T19:10:29.648Z,25.2
2022-08-23T19:11:33.416Z,25.3
2022-08-23T19:12:36.079Z,25.3
2022-08-23T19:13:39.698Z,25.4
2022-08-23T19:14:40.679Z,25.3
2022-08-23T19:15:41.663Z,25.3
2022-08-23T19:16:47.526Z,25.2
2022-08-23T19:17:43.697Z,25.2
2022-08-23T19:18:44.688Z,25.2
2022-08-23T19:19:45.644Z,25.2
2022-08-23T19:20:47.686Z,25.1
2022-08-23T19:21:48.779Z,25.1
2022-08-23T19:22:50.725Z,25
2022-08-23T19:23:51.683Z,24.9
2022-08-23T19:24:52.660Z,24.8
2022-08-23T19:25:53.660Z,24.8
2022-08-23T19:26:54.668Z,24.8
2022-08-23T19:27:56.765Z,24.9
2022-08-23T19:28:58.665Z,24.9
2022-08-23T19:30:00.668Z,24.8
2022-08-23T19:31:01.697Z,24.8
2022-08-23T19:32:02.987Z,24.8
2022-08-23T19:33:06.040Z,24.8
2022-08-23T19:34:09.701Z,24.8
2022-08-23T19:35:10.725Z,24.8
2022-08-23T19:36:23.902Z,24.7
2022-08-23T19:37:20.428Z,24.7
2022-08-23T19:38:13.723Z,24.7
2022-08-23T19:39:14.695Z,24.8
2022-08-23T19:40:15.739Z,24.8
2022-08-23T19:41:16.687Z,24.8
2022-08-23T19:42:17.683Z,24.7
2022-08-23T19:43:18.726Z,24.6
2022-08-23T19:44:19.737Z,24.6
2022-08-23T19:45:20.730Z,24.5
2022-08-23T19:46:21.746Z,24.5
2022-08-23T19:47:25.485Z,24.6
2022-08-23T19:48:25.690Z,24.6
2022-08-23T19:49:26.754Z,24.6
2022-08-23T19:50:27.721Z,24.7
2022-08-23T19:51:28.754Z,24.7
2022-08-23T19:52:29.715Z,24.6
2022-08-23T19:53:30.701Z,24.6
2022-08-23T19:54:31.772Z,24.6
2022-08-23T19:55:32.719Z,24.6
2022-08-23T19:56:33.723Z,24.7
2022-08-23T19:57:34.727Z,24.7
2022-08-23T19:58:35.711Z,24.7
2022-08-23T19:59:36.785Z,24.8
2022-08-23T20:00:38.108Z,24.8
2022-08-23T20:01:39.943Z,24.9
2022-08-23T20:02:42.339Z,25
2022-08-23T20:03:47.626Z,25
2022-08-23T20:04:50.982Z,24.9
2022-08-23T20:05:54.210Z,25
2022-08-23T20:06:56.001Z,25
2022-08-23T20:07:57.851Z,25
2022-08-23T20:08:59.973Z,25
2022-08-23T20:10:01.932Z,25
2022-08-23T20:11:08.484Z,25.1
2022-08-23T20:12:11.237Z,25
2022-08-23T20:13:14.223Z,25
2022-08-23T20:14:18.754Z,25
2022-08-23T20:15:22.649Z,25
2022-08-23T20:16:25.583Z,25
2022-08-23T20:17:30.354Z,25
2022-08-23T20:18:37.442Z,24.9
2022-08-23T20:19:41.387Z,24.9
2022-08-23T20:20:43.964Z,24.8
2022-08-23T20:21:46.247Z,24.7
2022-08-23T20:22:49.186Z,24.6
2022-08-23T20:23:52.054Z,24.6
2022-08-23T20:24:55.207Z,24.6
2022-08-23T20:25:58.414Z,24.6
2022-08-23T20:27:00.993Z,24.5
2022-08-23T20:28:04.172Z,24.5
2022-08-23T20:29:07.149Z,24.5
2022-08-23T20:30:09.106Z,24.5
2022-08-23T20:31:11.216Z,24.6
2022-08-23T20:32:14.064Z,24.6
2022-08-23T20:33:17.415Z,24.7
2022-08-23T20:34:20.201Z,24.7
2022-08-23T20:35:23.265Z,24.6
2022-08-23T20:36:27.371Z,24.6
2022-08-23T20:37:33.939Z,24.6
2022-08-23T20:38:37.524Z,24.6
2022-08-23T20:39:41.055Z,24.6
2022-08-23T20:40:43.370Z,24.7
2022-08-23T20:41:46.983Z,24.7
2022-08-23T20:42:49.209Z,24.6
2022-08-23T20:43:52.300Z,24.6
2022-08-23T20:44:55.275Z,24.6
2022-08-23T20:45:58.985Z,24.6
2022-08-23T20:47:03.125Z,24.6
2022-08-23T20:48:04.410Z,24.6
2022-08-23T20:49:08.751Z,24.5
2022-08-23T20:50:12.113Z,24.4
2022-08-23T20:51:14.134Z,24.4
2022-08-23T20:52:18.398Z,24.4
2022-08-23T20:53:21.340Z,24.5
2022-08-23T20:54:24.258Z,24.5
2022-08-23T20:55:27.469Z,24.6
2022-08-23T20:56:31.395Z,24.6
2022-08-23T20:57:38.362Z,24.6
2022-08-23T20:58:37.349Z,24.5
2022-08-23T20:59:44.597Z,24.4
2022-08-23T21:00:46.458Z,24.3
2022-08-23T21:01:49.409Z,24.3
2022-08-23T21:02:52.326Z,24.3
2022-08-23T21:03:56.374Z,24.3
2022-08-23T21:05:02.984Z,24.3
2022-08-23T21:06:09.297Z,24.4
2022-08-23T21:07:14.474Z,24.4
2022-08-23T21:08:17.142Z,24.4
2022-08-23T21:09:20.222Z,24.4
2022-08-23T21:10:24.221Z,24.4
2022-08-23T21:11:27.402Z,24.4
2022-08-23T21:12:30.842Z,24.4
2022-08-23T21:13:32.958Z,24.4
2022-08-23T21:14:35.409Z,24.4
2022-08-23T21:15:39.670Z,24.4
2022-08-23T21:16:43.467Z,24.4
2022-08-23T21:17:48.333Z,24.4
2022-08-23T21:18:51.142Z,24.5
2022-08-23T21:19:55.386Z,24.5
2022-08-23T21:20:59.455Z,24.5
2022-08-23T21:22:02.526Z,24.5
2022-08-23T21:23:07.434Z,24.5
2022-08-23T21:24:10.390Z,24.5
2022-08-23T21:25:13.144Z,24.6
2022-08-23T21:26:16.448Z,24.6
2022-08-23T21:27:19.466Z,24.6
2022-08-23T21:28:25.573Z,24.6
2022-08-23T21:29:28.511Z,24.6
2022-08-23T21:30:31.423Z,24.7
2022-08-23T21:31:36.428Z,24.7
2022-08-23T21:32:40.345Z,24.7
2022-08-23T21:33:47.009Z,24.7
2022-08-23T21:34:49.281Z,24.7
2022-08-23T21:35:52.204Z,24.7
2022-08-23T21:36:54.420Z,24.6
2022-08-23T21:37:57.093Z,24.6
2022-08-23T21:38:59.461Z,24.6
2022-08-23T21:40:03.344Z,24.6
2022-08-23T21:41:07.434Z,24.6
2022-08-23T21:42:14.220Z,24.6
2022-08-23T21:43:12.194Z,24.6
2022-08-23T21:44:15.170Z,24.6
2022-08-23T21:45:17.393Z,24.6
2022-08-23T21:46:20.570Z,24.6
2022-08-23T21:47:23.311Z,24.6
2022-08-23T21:48:27.450Z,24.6
2022-08-23T21:49:30.425Z,24.6
2022-08-23T21:50:34.122Z,24.6
2022-08-23T21:51:38.433Z,24.6
2022-08-23T21:52:41.404Z,24.6
2022-08-23T21:53:46.838Z,24.6
2022-08-23T21:54:50.469Z,24.7
2022-08-23T21:55:53.451Z,24.7
2022-08-23T21:56:57.244Z,24.6
2022-08-23T21:57:59.521Z,24.6
2022-08-23T21:59:02.505Z,24.5
2022-08-23T22:00:05.415Z,24.4
2022-08-23T22:01:08.303Z,24.5
2022-08-23T22:02:11.542Z,24.5
2022-08-23T22:03:17.922Z,24.5
2022-08-23T22:04:21.303Z,24.6
2022-08-23T22:05:24.495Z,24.6
2022-08-23T22:06:37.933Z,24.6
2022-08-23T22:07:40.445Z,24.6
2022-08-23T22:08:46.428Z,24.6
2022-08-23T22:09:50.530Z,24.6
2022-08-23T22:10:57.230Z,24.6
2022-08-23T22:11:58.430Z,24.6
2022-08-23T22:13:03.617Z,24.7
2022-08-23T22:14:06.292Z,24.7
2022-08-23T22:15:12.479Z,24.8
2022-08-23T22:16:15.501Z,24.8
2022-08-23T22:17:21.708Z,24.9
2022-08-23T22:18:24.556Z,25
2022-08-23T22:19:27.559Z,25
2022-08-23T22:20:30.535Z,24.9
2022-08-23T22:21:35.564Z,24.9
2022-08-23T22:22:37.020Z,24.9
2022-08-23T22:23:37.992Z,25
2022-08-23T22:24:38.958Z,25
2022-08-23T22:25:40.001Z,25
2022-08-23T22:26:40.955Z,24.9
2022-08-23T22:27:41.994Z,24.9
2022-08-23T22:28:42.950Z,24.8
2022-08-23T22:29:44.035Z,24.8
2022-08-23T22:30:45.156Z,24.7
2022-08-23T22:31:46.994Z,24.7
2022-08-23T22:32:47.972Z,24.6
2022-08-23T22:33:48.970Z,24.5
2022-08-23T22:34:49.980Z,24.6
2022-08-23T22:35:51.038Z,24.6
2022-08-23T22:36:52.507Z,24.6
2022-08-23T22:38:12.581Z,24.6
2022-08-23T22:38:54.021Z,24.6
2022-08-23T22:39:55.026Z,24.6
2022-08-23T22:40:56.031Z,24.6
2022-08-23T22:41:57.052Z,24.6
2022-08-23T22:42:57.995Z,24.7
2022-08-23T22:43:59.268Z,24.7
2022-08-23T22:45:01.075Z,24.6
2022-08-23T22:46:02.160Z,24.6
2022-08-23T22:47:03.029Z,24.6
2022-08-23T22:48:04.212Z,24.7
2022-08-23T22:49:05.006Z,24.7
2022-08-23T22:50:06.007Z,24.7
2022-08-23T22:51:07.002Z,24.7
2022-08-23T22:52:08.027Z,24.9
2022-08-23T22:53:09.071Z,25
2022-08-23T22:54:10.015Z,25
2022-08-23T22:55:11.010Z,25.1
2022-08-23T22:56:12.036Z,25.2
2022-08-23T22:57:13.067Z,25.3
2022-08-23T22:58:14.017Z,25.3
2022-08-23T22:59:15.281Z,25.4
2022-08-23T23:00:16.023Z,25.3
2022-08-23T23:01:17.047Z,25.4
2022-08-23T23:02:18.061Z,25.3
2022-08-23T23:03:19.031Z,25.3
2022-08-23T23:04:20.432Z,25.2
2022-08-23T23:05:21.016Z,25.1
2022-08-23T23:06:22.098Z,25.1
2022-08-23T23:07:23.028Z,25.1
2022-08-23T23:08:24.110Z,25.1
2022-08-23T23:09:25.031Z,25.1
2022-08-23T23:10:26.036Z,25.1
2022-08-23T23:11:27.642Z,25.3
2022-08-23T23:12:28.034Z,25.3
2022-08-23T23:13:29.071Z,25.4
2022-08-23T23:14:30.047Z,25.4
2022-08-23T23:15:31.045Z,25.5
2022-08-23T23:16:32.059Z,25.6
2022-08-23T23:17:33.077Z,25.6
2022-08-23T23:18:34.272Z,25.7
2022-08-23T23:19:36.047Z,25.6
2022-08-23T23:20:37.047Z,25.6
2022-08-23T23:21:38.048Z,25.5
2022-08-23T23:22:39.081Z,25.6
2022-08-23T23:23:40.061Z,25.6
2022-08-23T23:24:41.081Z,25.7
2022-08-23T23:25:42.070Z,25.7
2022-08-23T23:26:43.104Z,25.8
2022-08-23T23:27:44.065Z,25.9
2022-08-23T23:28:45.064Z,26
2022-08-23T23:29:46.063Z,26.1
2022-08-23T23:30:47.141Z,26.1
2022-08-23T23:31:48.124Z,26.1
2022-08-23T23:32:49.074Z,26
2022-08-23T23:33:50.077Z,26
2022-08-23T23:34:51.078Z,25.9
2022-08-23T23:35:52.072Z,26
2022-08-23T23:36:53.134Z,26.1
2022-08-23T23:37:54.082Z,26.1
2022-08-23T23:38:55.080Z,26.1
2022-08-23T23:39:56.126Z,26.2
2022-08-23T23:40:57.082Z,26.2
2022-08-23T23:41:58.149Z,26.2
2022-08-23T23:42:59.090Z,26.2
2022-08-23T23:44:00.084Z,26.2
2022-08-23T23:45:01.136Z,26.2
2022-08-23T23:46:02.167Z,26.2
2022-08-23T23:47:03.185Z,26.3
2022-08-23T23:48:04.216Z,26.3
2022-08-23T23:49:05.098Z,26.3
2022-08-23T23:50:06.106Z,26.2
2022-08-23T23:51:07.097Z,26.2
2022-08-23T23:52:08.128Z,26.2
2022-08-23T23:53:09.107Z,26.3
2022-08-23T23:54:10.133Z,26.3
2022-08-23T23:55:11.102Z,26.4
2022-08-23T23:56:12.109Z,26.4
2022-08-23T23:57:13.146Z,26.4
2022-08-23T23:58:14.115Z,26.4
2022-08-23T23:59:15.112Z,26.3
